createdAt,value
2023-04-05T00:02:13.913Z,0.33
2023-04-05T00:05:41.356Z,0.35
2023-04-05T00:09:08.444Z,0.37
2023-04-05T00:12:35.132Z,0.41
2023-04-05T00:16:02.792Z,0.43
2023-04-05T00:19:33.953Z,0.44
2023-04-05T00:23:01.096Z,0.45
2023-04-05T00:26:28.136Z,0.45
2023-04-05T00:29:56.457Z,0.45
2023-04-05T00:33:23.500Z,0.47
2023-04-05T00:36:50.562Z,0.49
2023-04-05T00:40:17.530Z,0.51
2023-04-05T00:43:44.802Z,0.52
2023-04-05T00:47:11.737Z,0.52
2023-04-05T00:50:39.387Z,0.53
2023-04-05T00:54:08.654Z,0.54
2023-04-05T00:57:39.147Z,0.54
2023-04-05T01:01:13.799Z,0.54
2023-04-05T01:04:50.195Z,0.52
2023-04-05T01:08:23.463Z,0.51
2023-04-05T01:11:53.520Z,0.46
2023-04-05T01:15:20.811Z,0.40
2023-04-05T01:18:47.795Z,0.32
2023-04-05T01:23:01.590Z,0.25
2023-04-05T01:26:54.718Z,0.15
2023-04-05T01:30:25.594Z,0.05
2023-04-05T01:33:59.037Z,-0.04
2023-04-05T01:37:32.957Z,-0.11
2023-04-05T01:41:00.431Z,-0.20
2023-04-05T01:44:27.427Z,-0.31
2023-04-05T01:47:59.079Z,-0.41
2023-04-05T01:51:26.816Z,-0.48
2023-04-05T01:54:53.943Z,-0.55
2023-04-05T01:58:20.794Z,-0.63
2023-04-05T02:01:47.699Z,-0.69
2023-04-05T02:05:14.948Z,-0.75
2023-04-05T02:08:42.020Z,-0.81
2023-04-05T02:12:09.915Z,-0.88
2023-04-05T02:15:38.222Z,-0.98
2023-04-05T02:19:05.847Z,-1.08
2023-04-05T02:22:32.837Z,-1.16
2023-04-05T02:26:00.347Z,-1.24
2023-04-05T02:29:27.714Z,-1.31
2023-04-05T02:32:54.653Z,-1.39
2023-04-05T02:36:22.279Z,-1.47
2023-04-05T02:39:49.436Z,-1.54
2023-04-05T02:43:16.615Z,-1.60
2023-04-05T02:46:43.524Z,-1.64
2023-04-05T02:50:11.881Z,-1.68
2023-04-05T02:53:44.863Z,-1.71
2023-04-05T02:57:13.906Z,-1.74
2023-04-05T03:00:51.531Z,-1.79
2023-04-05T03:04:21.622Z,-1.84
2023-04-05T03:07:51.384Z,-1.87
2023-04-05T03:11:19.742Z,-1.90
2023-04-05T03:14:50.547Z,-1.94
2023-04-05T03:18:20.897Z,-1.99
2023-04-05T03:21:48.294Z,-2.04
2023-04-05T03:25:26.238Z,-2.10
2023-04-05T03:28:53.464Z,-2.15
2023-04-05T03:32:26.499Z,-2.18
2023-04-05T03:36:00.640Z,-2.20
2023-04-05T03:39:29.074Z,-2.23
2023-04-05T03:42:56.997Z,-2.26
2023-04-05T03:46:24.606Z,-2.28
2023-04-05T03:49:51.706Z,-2.29
2023-04-05T03:53:19.641Z,-2.26
2023-04-05T03:56:49.590Z,-2.22
2023-04-05T04:00:18.949Z,-2.17
2023-04-05T04:03:55.641Z,-2.10
2023-04-05T04:07:24.540Z,-2.03
2023-04-05T04:10:51.790Z,-1.97
2023-04-05T04:14:22.916Z,-1.92
2023-04-05T04:18:09.013Z,-1.87
2023-04-05T04:21:56.043Z,-1.83
2023-04-05T04:25:46.246Z,-1.82
2023-04-05T04:29:47.064Z,-1.79
2023-04-05T04:33:31.088Z,-1.77
2023-04-05T04:37:17.786Z,-1.75
2023-04-05T04:41:10.920Z,-1.73
2023-04-05T04:45:03.197Z,-1.71
2023-04-05T04:48:58.562Z,-1.67
2023-04-05T04:52:32.171Z,-1.61
2023-04-05T04:55:59.275Z,-1.53
2023-04-05T04:59:26.443Z,-1.44
2023-04-05T05:02:53.821Z,-1.35
2023-04-05T05:06:22.096Z,-1.26
2023-04-05T05:09:52.466Z,-1.16
2023-04-05T05:13:19.437Z,-1.08
2023-04-05T05:16:46.487Z,-0.99
2023-04-05T05:20:14.808Z,-0.62
2023-04-05T05:23:45.780Z,0.03
2023-04-05T05:27:12.650Z,0.82
2023-04-05T05:30:39.927Z,1.36
2023-04-05T05:34:07.558Z,1.82
2023-04-05T05:37:36.763Z,2.48
2023-04-05T05:41:03.707Z,3.27
2023-04-05T05:44:31.752Z,4.07
2023-04-05T05:47:59.186Z,4.85
2023-04-05T05:51:26.366Z,5.67
2023-04-05T05:54:53.145Z,6.34
2023-04-05T05:58:19.950Z,6.48
2023-04-05T06:01:47.627Z,6.36
2023-04-05T06:05:14.684Z,6.45
2023-04-05T06:08:41.821Z,6.80
2023-04-05T06:12:09.468Z,7.37
2023-04-05T06:15:37.016Z,7.94
2023-04-05T06:19:04.044Z,8.51
2023-04-05T06:22:30.951Z,9.03
2023-04-05T06:25:58.604Z,9.45
2023-04-05T06:29:25.482Z,9.67
2023-04-05T06:32:54.670Z,9.90
2023-04-05T06:36:21.943Z,10.14
2023-04-05T06:39:49.175Z,9.84
2023-04-05T06:43:16.518Z,9.23
2023-04-05T06:46:43.344Z,8.74
2023-04-05T06:50:11.974Z,8.60
2023-04-05T06:53:38.940Z,8.36
2023-04-05T06:57:05.989Z,8.29
2023-04-05T07:00:34.667Z,8.07
2023-04-05T07:04:01.700Z,7.87
2023-04-05T07:07:28.832Z,8.31
2023-04-05T07:10:56.078Z,8.82
2023-04-05T07:14:22.998Z,8.95
2023-04-05T07:17:50.062Z,8.71
2023-04-05T07:21:18.039Z,8.82
2023-04-05T07:24:46.106Z,8.91
2023-04-05T07:28:14.261Z,8.53
2023-04-05T07:31:41.561Z,8.02
2023-04-05T07:35:10.786Z,7.56
2023-04-05T07:38:37.930Z,7.58
2023-04-05T07:42:05.088Z,7.84
2023-04-05T07:45:32.062Z,8.13
2023-04-05T07:48:59.540Z,8.13
2023-04-05T07:52:26.487Z,8.08
2023-04-05T07:55:54.654Z,8.28
2023-04-05T07:59:22.104Z,8.25
2023-04-05T08:02:49.159Z,8.27
2023-04-05T08:06:18.351Z,8.14
2023-04-05T08:09:45.218Z,8.30
2023-04-05T08:13:12.137Z,8.42
2023-04-05T08:16:39.140Z,8.62
2023-04-05T08:20:07.470Z,8.51
2023-04-05T08:23:34.461Z,8.06
2023-04-05T08:27:02.070Z,7.69
2023-04-05T08:30:30.406Z,7.29
2023-04-05T08:33:57.324Z,7.35
2023-04-05T08:37:26.278Z,7.10
